createdAt,value
2023-12-09T00:01:05.918Z,1.80
2023-12-09T00:03:34.602Z,1.80
2023-12-09T00:06:03.345Z,1.80
2023-12-09T00:08:31.883Z,1.80
2023-12-09T00:11:00.206Z,1.80
2023-12-09T00:13:28.908Z,1.80
2023-12-09T00:15:57.366Z,1.80
2023-12-09T00:18:27.212Z,1.90
2023-12-09T00:20:55.883Z,1.90
2023-12-09T00:23:24.583Z,1.90
2023-12-09T00:25:52.884Z,1.90
2023-12-09T00:28:21.564Z,1.80
2023-12-09T00:30:49.827Z,1.80
2023-12-09T00:33:18.396Z,1.90
2023-12-09T00:35:48.410Z,1.90
2023-12-09T00:38:16.893Z,1.90
2023-12-09T00:40:45.360Z,1.80
2023-12-09T00:43:13.660Z,1.90
2023-12-09T00:45:42.236Z,1.80
2023-12-09T00:48:10.833Z,1.90
2023-12-09T00:50:39.232Z,1.80
2023-12-09T00:53:08.988Z,1.80
2023-12-09T00:55:37.567Z,1.80
2023-12-09T00:58:05.920Z,1.80
2023-12-09T01:00:34.535Z,1.80
2023-12-09T01:03:03.134Z,1.80
2023-12-09T01:05:31.994Z,1.70
2023-12-09T01:08:00.478Z,1.70
2023-12-09T01:10:30.454Z,1.70
2023-12-09T01:12:58.983Z,1.70
2023-12-09T01:15:27.520Z,1.60
2023-12-09T01:17:56.341Z,1.60
2023-12-09T01:20:26.180Z,1.60
2023-12-09T01:22:54.677Z,1.60
2023-12-09T01:25:23.103Z,1.60
2023-12-09T01:27:53.926Z,1.60
2023-12-09T01:30:24.040Z,1.60
2023-12-09T01:32:52.995Z,1.60
2023-12-09T01:35:21.674Z,1.60
2023-12-09T01:37:50.028Z,1.60
2023-12-09T01:40:18.475Z,1.70
2023-12-09T01:42:47.113Z,1.70
2023-12-09T01:45:17.215Z,1.70
2023-12-09T01:47:46.211Z,1.70
2023-12-09T01:50:14.890Z,1.70
2023-12-09T01:52:44.299Z,1.80
2023-12-09T01:55:13.670Z,1.80
2023-12-09T01:57:42.534Z,1.80
2023-12-09T02:00:13.489Z,1.80
2023-12-09T02:02:43.592Z,1.90
2023-12-09T02:05:13.887Z,1.90
2023-12-09T02:07:42.299Z,1.90
2023-12-09T02:10:11.586Z,1.90
2023-12-09T02:12:45.384Z,1.90
2023-12-09T02:15:19.318Z,1.90
2023-12-09T02:17:55.551Z,1.90
2023-12-09T02:20:24.252Z,2.00
2023-12-09T02:22:53.078Z,1.90
2023-12-09T02:25:22.822Z,2.00
2023-12-09T02:27:59.916Z,2.00
2023-12-09T02:30:34.648Z,2.00
2023-12-09T02:33:04.465Z,2.00
2023-12-09T02:35:39.027Z,1.90
2023-12-09T02:38:07.743Z,1.90
2023-12-09T02:40:38.857Z,1.90
2023-12-09T02:43:07.601Z,1.90
2023-12-09T02:45:36.271Z,1.90
2023-12-09T02:48:05.408Z,1.90
2023-12-09T02:50:34.017Z,1.90
2023-12-09T02:53:02.563Z,1.90
2023-12-09T02:55:31.062Z,1.90
2023-12-09T02:58:00.779Z,1.90
2023-12-09T03:00:29.341Z,1.90
2023-12-09T03:02:57.997Z,1.90
2023-12-09T03:05:26.776Z,1.90
2023-12-09T03:07:55.419Z,1.80
2023-12-09T03:10:23.948Z,1.80
2023-12-09T03:12:52.669Z,1.80
2023-12-09T03:15:22.843Z,1.80
2023-12-09T03:17:51.531Z,1.70
2023-12-09T03:20:22.049Z,1.70
2023-12-09T03:22:50.320Z,1.60
2023-12-09T03:25:18.678Z,1.60
2023-12-09T03:27:46.954Z,1.60
2023-12-09T03:30:15.865Z,1.60
2023-12-09T03:32:45.664Z,1.60
2023-12-09T03:35:14.554Z,1.50
2023-12-09T03:37:42.988Z,1.50
2023-12-09T03:40:12.829Z,1.50
2023-12-09T03:42:41.388Z,1.40
2023-12-09T03:45:10.291Z,1.40
2023-12-09T03:47:38.939Z,1.40
2023-12-09T03:50:10.150Z,1.40
2023-12-09T03:52:39.258Z,1.30
2023-12-09T03:55:07.871Z,1.30
2023-12-09T03:57:36.499Z,1.20
2023-12-09T04:00:06.989Z,1.30
2023-12-09T04:02:35.478Z,1.30
2023-12-09T04:05:04.765Z,1.20
2023-12-09T04:07:35.448Z,1.20
2023-12-09T04:10:04.538Z,1.20
2023-12-09T04:12:32.926Z,1.20
2023-12-09T04:15:02.633Z,1.30
2023-12-09T04:17:31.128Z,1.30
2023-12-09T04:19:59.613Z,1.30
2023-12-09T04:22:28.081Z,1.20
2023-12-09T04:24:58.115Z,1.30
2023-12-09T04:27:26.495Z,1.20
2023-12-09T04:29:55.059Z,1.30
2023-12-09T04:32:23.710Z,1.30
2023-12-09T04:34:52.069Z,1.20
2023-12-09T04:37:20.475Z,1.20
2023-12-09T04:39:49.057Z,1.20
2023-12-09T04:42:19.572Z,1.20
2023-12-09T04:44:48.238Z,1.30
2023-12-09T04:47:16.660Z,1.30
2023-12-09T04:49:45.109Z,1.30
2023-12-09T04:52:13.659Z,1.30
2023-12-09T04:54:42.306Z,1.30
2023-12-09T04:57:10.840Z,1.30
2023-12-09T04:59:40.732Z,1.30
2023-12-09T05:02:09.292Z,1.30
2023-12-09T05:04:37.793Z,1.40
2023-12-09T05:07:06.746Z,1.40
2023-12-09T05:09:35.332Z,1.40
2023-12-09T05:12:03.698Z,1.50
2023-12-09T05:14:32.145Z,1.50
2023-12-09T05:17:02.253Z,1.50
2023-12-09T05:19:30.961Z,1.50
2023-12-09T05:21:59.271Z,1.50
2023-12-09T05:24:27.646Z,1.50
2023-12-09T05:26:58.704Z,1.50
2023-12-09T05:29:27.267Z,1.50
2023-12-09T05:31:55.936Z,1.60
2023-12-09T05:34:25.737Z,1.60
2023-12-09T05:36:54.141Z,1.60
2023-12-09T05:39:22.669Z,1.60
2023-12-09T05:41:51.420Z,1.60
2023-12-09T05:44:20.391Z,1.60
2023-12-09T05:46:48.763Z,1.60
2023-12-09T05:49:17.734Z,1.60
2023-12-09T05:51:47.781Z,1.60
2023-12-09T05:54:16.351Z,1.60
2023-12-09T05:56:50.477Z,1.60
2023-12-09T05:59:19.322Z,1.60
2023-12-09T06:01:47.645Z,1.60
2023-12-09T06:04:15.988Z,1.60
2023-12-09T06:06:44.591Z,1.70
2023-12-09T06:09:14.588Z,1.70
2023-12-09T06:11:42.968Z,1.70
2023-12-09T06:14:11.513Z,1.70
2023-12-09T06:16:40.177Z,1.70
2023-12-09T06:19:08.729Z,1.70
2023-12-09T06:21:37.247Z,1.70
2023-12-09T06:24:06.564Z,1.70
2023-12-09T06:26:37.165Z,1.70
2023-12-09T06:29:05.551Z,1.80
2023-12-09T06:31:33.814Z,1.80
2023-12-09T06:34:02.288Z,1.80
2023-12-09T06:36:31.125Z,1.80
2023-12-09T06:39:00.128Z,1.80
2023-12-09T06:41:29.258Z,1.90
2023-12-09T06:43:59.104Z,1.90
2023-12-09T06:46:27.559Z,1.90
2023-12-09T06:48:56.188Z,2.00
2023-12-09T06:51:24.890Z,2.00
2023-12-09T06:53:53.376Z,2.10
2023-12-09T06:56:22.073Z,2.10
2023-12-09T06:58:51.006Z,2.10
2023-12-09T07:01:32.352Z,2.10
2023-12-09T07:04:00.972Z,2.20
2023-12-09T07:06:30.850Z,2.20
2023-12-09T07:08:59.673Z,2.20
2023-12-09T07:11:28.155Z,2.30
2023-12-09T07:13:56.413Z,2.30
2023-12-09T07:16:26.095Z,2.30
2023-12-09T07:19:01.209Z,2.40
2023-12-09T07:21:30.313Z,2.50
2023-12-09T07:23:58.865Z,2.50
2023-12-09T07:26:27.242Z,2.50
2023-12-09T07:28:55.680Z,2.50
2023-12-09T07:31:25.466Z,2.60
2023-12-09T07:33:54.465Z,2.60
2023-12-09T07:36:22.890Z,2.60
2023-12-09T07:38:51.398Z,2.60
2023-12-09T07:41:20.033Z,2.70
2023-12-09T07:43:48.445Z,2.70
2023-12-09T07:46:17.008Z,2.70
2023-12-09T07:48:46.977Z,2.70
2023-12-09T07:51:15.926Z,2.70
2023-12-09T07:53:44.566Z,2.80
2023-12-09T07:56:13.029Z,2.80
2023-12-09T07:58:41.343Z,2.90
2023-12-09T08:01:11.622Z,2.90
2023-12-09T08:03:40.817Z,2.90
2023-12-09T08:06:11.453Z,3.00
2023-12-09T08:08:39.990Z,3.10
2023-12-09T08:11:08.557Z,3.10
2023-12-09T08:13:37.057Z,3.10
2023-12-09T08:16:06.712Z,3.10
2023-12-09T08:18:35.276Z,3.10
2023-12-09T08:21:04.401Z,3.10
2023-12-09T08:23:34.322Z,3.10
2023-12-09T08:26:03.041Z,3.10
2023-12-09T08:28:31.743Z,3.20
2023-12-09T08:31:00.199Z,3.20
2023-12-09T08:33:29.318Z,3.30
2023-12-09T08:35:57.980Z,3.40
2023-12-09T08:38:26.408Z,3.50
2023-12-09T08:40:56.834Z,3.60
2023-12-09T08:43:26.210Z,3.70
2023-12-09T08:45:54.842Z,3.70
2023-12-09T08:48:23.653Z,3.70
2023-12-09T08:50:52.037Z,3.70
2023-12-09T08:53:20.559Z,3.80
2023-12-09T08:55:49.167Z,3.90
2023-12-09T08:58:19.055Z,4.00
2023-12-09T09:00:50.086Z,4.10
2023-12-09T09:03:20.540Z,4.10
2023-12-09T09:05:49.291Z,4.20
2023-12-09T09:08:17.776Z,4.20
2023-12-09T09:10:46.357Z,4.20
2023-12-09T09:13:15.062Z,4.20
2023-12-09T09:15:45.072Z,4.20
2023-12-09T09:18:14.987Z,4.20
2023-12-09T09:20:44.277Z,4.30
2023-12-09T09:23:14.066Z,4.40
2023-12-09T09:25:42.336Z,4.40
2023-12-09T09:28:10.696Z,4.40
2023-12-09T09:30:39.074Z,4.40
2023-12-09T09:33:09.900Z,4.40
2023-12-09T09:35:38.592Z,4.50
2023-12-09T09:38:06.903Z,4.50
2023-12-09T09:40:35.452Z,4.60
2023-12-09T09:43:15.580Z,4.70
2023-12-09T09:45:46.560Z,4.70
2023-12-09T09:48:19.113Z,4.80
2023-12-09T09:50:49.525Z,4.80
2023-12-09T09:53:23.682Z,4.90
2023-12-09T09:55:54.202Z,4.90
2023-12-09T09:58:23.216Z,4.90
2023-12-09T10:00:53.727Z,4.90
2023-12-09T10:03:23.810Z,4.90
2023-12-09T10:05:54.276Z,4.80
2023-12-09T10:08:22.873Z,4.80
2023-12-09T10:10:51.420Z,4.90
2023-12-09T10:13:20.028Z,4.90
2023-12-09T10:15:48.423Z,4.90
2023-12-09T10:18:17.203Z,4.90
2023-12-09T10:20:49.592Z,4.80
2023-12-09T10:23:19.253Z,4.80
2023-12-09T10:25:49.298Z,4.70
2023-12-09T10:28:18.145Z,4.60
2023-12-09T10:30:48.055Z,4.60
2023-12-09T10:33:17.466Z,4.50
2023-12-09T10:35:48.257Z,4.50
2023-12-09T10:38:18.443Z,4.50
2023-12-09T10:40:46.828Z,4.50
2023-12-09T10:43:15.833Z,4.40
2023-12-09T10:45:44.840Z,4.40
2023-12-09T10:48:13.495Z,4.30
2023-12-09T10:50:42.038Z,4.10
2023-12-09T10:53:11.992Z,4.10
2023-12-09T10:55:40.786Z,4.10
2023-12-09T10:58:09.572Z,4.10
2023-12-09T11:00:38.997Z,4.10
2023-12-09T11:03:08.815Z,4.20
2023-12-09T11:05:47.014Z,4.20
2023-12-09T11:08:17.915Z,4.20
2023-12-09T11:10:49.353Z,4.30
2023-12-09T11:13:20.075Z,4.30
2023-12-09T11:15:48.973Z,4.30
2023-12-09T11:18:19.251Z,4.20
2023-12-09T11:20:53.495Z,4.20
2023-12-09T11:23:23.513Z,4.30
2023-12-09T11:25:52.263Z,4.20
2023-12-09T11:28:22.383Z,4.20
2023-12-09T11:30:50.925Z,4.10
2023-12-09T11:33:19.608Z,4.00
2023-12-09T11:35:49.045Z,4.00
2023-12-09T11:38:18.992Z,3.90
2023-12-09T11:40:49.256Z,4.00
2023-12-09T11:43:18.967Z,4.00
2023-12-09T11:45:49.363Z,4.00
2023-12-09T11:48:18.619Z,4.00
2023-12-09T11:50:47.053Z,4.10
2023-12-09T11:53:15.770Z,4.10
2023-12-09T11:55:45.302Z,4.20
2023-12-09T11:58:15.249Z,4.20
2023-12-09T12:00:43.608Z,4.20
2023-12-09T12:03:12.011Z,4.30
2023-12-09T12:05:40.678Z,4.30
2023-12-09T12:08:09.796Z,4.30
2023-12-09T12:10:38.628Z,4.30
2023-12-09T12:13:07.189Z,4.30
2023-12-09T12:15:37.226Z,4.30
2023-12-09T12:18:06.914Z,4.30
2023-12-09T12:20:35.630Z,4.30
2023-12-09T12:23:05.299Z,4.30
2023-12-09T12:25:34.196Z,4.30
2023-12-09T12:28:03.357Z,4.30
2023-12-09T12:30:33.789Z,4.30
2023-12-09T12:33:05.029Z,4.30
2023-12-09T12:35:35.560Z,4.20
2023-12-09T12:38:04.217Z,4.10
2023-12-09T12:40:33.294Z,4.10
2023-12-09T12:43:06.248Z,4.20
2023-12-09T12:45:35.164Z,4.20
2023-12-09T12:48:05.689Z,4.20
2023-12-09T12:50:34.497Z,4.30
2023-12-09T12:53:03.032Z,4.40
2023-12-09T12:55:31.717Z,4.40
2023-12-09T12:58:00.384Z,4.40
2023-12-09T13:00:31.730Z,4.30
2023-12-09T13:03:00.687Z,4.20
2023-12-09T13:05:31.209Z,4.20
2023-12-09T13:08:00.599Z,4.20
2023-12-09T13:10:29.312Z,4.20
2023-12-09T13:12:58.142Z,4.20
2023-12-09T13:15:27.039Z,4.30
2023-12-09T13:17:56.661Z,4.20
2023-12-09T13:20:25.485Z,4.10
2023-12-09T13:22:55.865Z,4.10
2023-12-09T13:25:24.571Z,4.10
2023-12-09T13:27:53.627Z,4.10
2023-12-09T13:30:23.364Z,4.10
2023-12-09T13:32:52.392Z,4.10
2023-12-09T13:35:21.007Z,4.10
2023-12-09T13:37:49.863Z,4.10
2023-12-09T13:40:20.384Z,4.10
2023-12-09T13:42:49.730Z,4.10
2023-12-09T13:45:19.402Z,4.10
2023-12-09T13:47:48.302Z,4.20
2023-12-09T13:50:17.229Z,4.10
2023-12-09T13:52:45.915Z,4.00
2023-12-09T13:55:15.467Z,3.90
2023-12-09T13:57:45.747Z,3.90
2023-12-09T14:00:17.148Z,3.80
2023-12-09T14:02:46.319Z,3.80
2023-12-09T14:05:15.767Z,3.80
2023-12-09T14:07:44.813Z,3.70
2023-12-09T14:10:14.504Z,3.70
2023-12-09T14:12:45.682Z,3.70
2023-12-09T14:15:14.666Z,3.70
2023-12-09T14:17:45.422Z,3.70
2023-12-09T14:20:17.207Z,3.70
2023-12-09T14:22:47.549Z,3.70
2023-12-09T14:25:16.239Z,3.70
2023-12-09T14:27:46.514Z,3.70
2023-12-09T14:30:15.800Z,3.70
2023-12-09T14:32:46.073Z,3.70
2023-12-09T14:35:16.472Z,3.70
2023-12-09T14:37:49.396Z,3.60
2023-12-09T14:40:18.829Z,3.60
2023-12-09T14:42:49.054Z,3.60
2023-12-09T14:45:17.763Z,3.60
2023-12-09T14:47:54.120Z,3.60
2023-12-09T14:50:30.675Z,3.60
2023-12-09T14:53:00.278Z,3.50
2023-12-09T14:55:28.636Z,3.50
2023-12-09T14:57:58.887Z,3.50
2023-12-09T15:00:28.636Z,3.50
2023-12-09T15:02:57.513Z,3.50
2023-12-09T15:05:26.841Z,3.50
2023-12-09T15:07:55.493Z,3.50
2023-12-09T15:10:24.740Z,3.50
2023-12-09T15:12:53.540Z,3.50
2023-12-09T15:15:23.605Z,3.40
2023-12-09T15:17:52.311Z,3.40
2023-12-09T15:20:21.144Z,3.40
2023-12-09T15:22:50.570Z,3.40
2023-12-09T15:25:19.303Z,3.40
2023-12-09T15:27:48.462Z,3.40
2023-12-09T15:30:19.974Z,3.40
2023-12-09T15:32:51.108Z,3.40
2023-12-09T15:35:20.205Z,3.40
2023-12-09T15:37:49.085Z,3.30
2023-12-09T15:40:17.849Z,3.30
2023-12-09T15:42:46.332Z,3.30
2023-12-09T15:45:15.286Z,3.30
2023-12-09T15:47:44.250Z,3.30
2023-12-09T15:50:14.385Z,3.30
2023-12-09T15:52:43.542Z,3.30
2023-12-09T15:55:12.150Z,3.20
2023-12-09T15:57:41.428Z,3.20
2023-12-09T16:00:11.334Z,3.20
2023-12-09T16:02:41.982Z,3.20
2023-12-09T16:05:14.630Z,3.20
2023-12-09T16:07:44.549Z,3.20
2023-12-09T16:10:13.550Z,3.20
2023-12-09T16:12:46.552Z,3.20
2023-12-09T16:15:15.950Z,3.20
2023-12-09T16:17:44.768Z,3.20
2023-12-09T16:20:16.104Z,3.10
2023-12-09T16:22:44.897Z,3.10
2023-12-09T16:25:13.448Z,3.00
2023-12-09T16:27:42.124Z,3.00
2023-12-09T16:30:12.131Z,2.90
2023-12-09T16:32:40.776Z,2.90
2023-12-09T16:35:10.111Z,2.90
2023-12-09T16:37:41.394Z,2.90
2023-12-09T16:40:12.231Z,2.90
2023-12-09T16:42:40.883Z,2.90
2023-12-09T16:45:12.621Z,3.00
2023-12-09T16:47:42.648Z,2.90
2023-12-09T16:50:12.279Z,3.00
2023-12-09T16:52:42.411Z,3.00
2023-12-09T16:55:11.988Z,3.00
2023-12-09T16:57:40.603Z,3.00
2023-12-09T17:00:11.291Z,3.00
2023-12-09T17:02:39.966Z,3.00
2023-12-09T17:05:11.188Z,2.90
2023-12-09T17:07:41.355Z,2.90
2023-12-09T17:10:10.587Z,2.80
2023-12-09T17:12:40.761Z,2.90
2023-12-09T17:15:18.138Z,2.90
2023-12-09T17:17:47.418Z,2.90
2023-12-09T17:20:16.073Z,2.80
2023-12-09T17:22:49.467Z,2.70
2023-12-09T17:25:19.000Z,2.70
2023-12-09T17:27:51.828Z,2.60
2023-12-09T17:30:20.945Z,2.60
2023-12-09T17:32:50.822Z,2.60
2023-12-09T17:35:20.149Z,2.60
2023-12-09T17:37:50.042Z,2.60
2023-12-09T17:40:19.298Z,2.60
2023-12-09T17:42:47.986Z,2.50
2023-12-09T17:45:16.987Z,2.50
2023-12-09T17:47:45.473Z,2.50
2023-12-09T17:50:13.955Z,2.50
2023-12-09T17:52:42.632Z,2.60
2023-12-09T17:55:14.131Z,2.60
2023-12-09T17:57:42.724Z,2.60
2023-12-09T18:00:12.770Z,2.50
2023-12-09T18:02:41.332Z,2.50
2023-12-09T18:05:10.897Z,2.50
2023-12-09T18:07:40.080Z,2.50
2023-12-09T18:10:09.727Z,2.60
2023-12-09T18:12:39.761Z,2.60
2023-12-09T18:15:09.356Z,2.60
2023-12-09T18:17:38.828Z,2.60
2023-12-09T18:20:08.507Z,2.50
2023-12-09T18:22:37.219Z,2.50
2023-12-09T18:25:06.767Z,2.40
2023-12-09T18:27:36.346Z,2.40
2023-12-09T18:30:07.543Z,2.40
2023-12-09T18:32:39.825Z,2.40
2023-12-09T18:35:12.374Z,2.40
2023-12-09T18:37:41.639Z,2.50
2023-12-09T18:40:11.134Z,2.50
2023-12-09T18:42:39.741Z,2.50
2023-12-09T18:45:10.822Z,2.40
2023-12-09T18:47:40.567Z,2.40
2023-12-09T18:50:09.430Z,2.40
2023-12-09T18:52:38.040Z,2.30
2023-12-09T18:55:08.635Z,2.30
2023-12-09T18:57:37.502Z,2.30
2023-12-09T19:00:07.764Z,2.40
2023-12-09T19:02:37.620Z,2.40
2023-12-09T19:05:06.891Z,2.40
2023-12-09T19:07:36.114Z,2.40
2023-12-09T19:10:06.339Z,2.40
2023-12-09T19:12:35.094Z,2.40
2023-12-09T19:15:03.756Z,2.40
2023-12-09T19:17:32.572Z,2.40
2023-12-09T19:20:04.790Z,2.40
2023-12-09T19:22:33.390Z,2.40
2023-12-09T19:25:01.755Z,2.50
2023-12-09T19:27:30.218Z,2.50
2023-12-09T19:29:58.716Z,2.50
2023-12-09T19:32:28.282Z,2.50
2023-12-09T19:34:56.989Z,2.50
2023-12-09T19:37:26.935Z,2.60
2023-12-09T19:39:56.132Z,2.60
2023-12-09T19:42:24.780Z,2.60
2023-12-09T19:44:53.385Z,2.60
2023-12-09T19:47:21.879Z,2.60
2023-12-09T19:49:50.657Z,2.60
2023-12-09T19:52:19.186Z,2.50
2023-12-09T19:54:49.268Z,2.50
2023-12-09T19:57:17.753Z,2.50
2023-12-09T19:59:47.944Z,2.50
2023-12-09T20:02:16.356Z,2.50
2023-12-09T20:04:44.848Z,2.50
2023-12-09T20:07:13.332Z,2.50
2023-12-09T20:09:41.729Z,2.50
2023-12-09T20:12:12.120Z,2.60
2023-12-09T20:14:41.157Z,2.60
2023-12-09T20:17:09.595Z,2.60
2023-12-09T20:19:38.768Z,2.60
2023-12-09T20:22:07.353Z,2.60
2023-12-09T20:24:36.598Z,2.60
2023-12-09T20:27:05.235Z,2.60
2023-12-09T20:29:35.585Z,2.60
2023-12-09T20:32:04.533Z,2.70
2023-12-09T20:34:33.744Z,2.70
2023-12-09T20:37:02.610Z,2.70
2023-12-09T20:39:31.226Z,2.70
2023-12-09T20:41:59.830Z,2.70
2023-12-09T20:44:28.320Z,2.70
2023-12-09T20:46:58.157Z,2.70
2023-12-09T20:49:26.572Z,2.70
2023-12-09T20:51:55.494Z,2.70
2023-12-09T20:54:23.955Z,2.70
2023-12-09T20:56:52.364Z,2.70
2023-12-09T20:59:21.831Z,2.70
2023-12-09T21:01:53.643Z,2.70
2023-12-09T21:04:25.402Z,2.70
2023-12-09T21:06:54.049Z,2.60
2023-12-09T21:09:23.677Z,2.60
2023-12-09T21:11:53.346Z,2.60
2023-12-09T21:14:21.743Z,2.50
2023-12-09T21:16:50.219Z,2.50
2023-12-09T21:19:18.904Z,2.40
2023-12-09T21:21:48.914Z,2.40
2023-12-09T21:24:17.730Z,2.40
2023-12-09T21:26:46.279Z,2.50
2023-12-09T21:29:14.744Z,2.50
2023-12-09T21:31:43.184Z,2.40
2023-12-09T21:34:13.091Z,2.40
2023-12-09T21:36:41.634Z,2.30
2023-12-09T21:39:12.755Z,2.30
2023-12-09T21:41:41.159Z,2.30
2023-12-09T21:44:10.258Z,2.30
2023-12-09T21:46:38.654Z,2.30
2023-12-09T21:49:07.075Z,2.30
2023-12-09T21:51:40.635Z,2.40
2023-12-09T21:54:10.786Z,2.40
2023-12-09T21:56:39.143Z,2.40
2023-12-09T21:59:07.457Z,2.40
2023-12-09T22:01:38.337Z,2.40
2023-12-09T22:04:07.414Z,2.40
2023-12-09T22:06:36.090Z,2.40
2023-12-09T22:09:04.569Z,2.50
2023-12-09T22:11:34.399Z,2.50
2023-12-09T22:14:02.836Z,2.40
2023-12-09T22:16:31.430Z,2.40
2023-12-09T22:18:59.926Z,2.40
2023-12-09T22:21:28.658Z,2.40
2023-12-09T22:23:57.105Z,2.40
2023-12-09T22:26:25.712Z,2.40
2023-12-09T22:28:55.762Z,2.40
2023-12-09T22:31:24.256Z,2.40
2023-12-09T22:33:53.252Z,2.40
2023-12-09T22:36:22.634Z,2.40
2023-12-09T22:38:52.121Z,2.40
2023-12-09T22:41:22.426Z,2.40
2023-12-09T22:43:51.412Z,2.40
2023-12-09T22:46:28.761Z,2.40
2023-12-09T22:48:57.489Z,2.40
2023-12-09T22:51:26.644Z,2.40
2023-12-09T22:53:55.170Z,2.40
2023-12-09T22:56:24.477Z,2.40
2023-12-09T22:58:54.079Z,2.40
2023-12-09T23:01:28.836Z,2.40
2023-12-09T23:03:57.345Z,2.40
2023-12-09T23:06:26.024Z,2.40
2023-12-09T23:08:54.697Z,2.30
2023-12-09T23:11:23.110Z,2.30
2023-12-09T23:13:51.508Z,2.30
2023-12-09T23:16:20.010Z,2.20
2023-12-09T23:18:50.207Z,2.30
2023-12-09T23:21:18.755Z,2.20
2023-12-09T23:23:47.160Z,2.10
2023-12-09T23:26:15.642Z,2.10
2023-12-09T23:28:44.127Z,2.00
2023-12-09T23:31:12.548Z,1.90
2023-12-09T23:33:43.714Z,1.90
2023-12-09T23:36:13.892Z,1.90
2023-12-09T23:38:42.389Z,1.90
2023-12-09T23:41:15.094Z,1.90
2023-12-09T23:43:43.811Z,1.90
2023-12-09T23:46:16.540Z,2.00
2023-12-09T23:48:44.972Z,2.00
2023-12-09T23:51:14.945Z,1.90
2023-12-09T23:53:43.589Z,1.90
2023-12-09T23:56:12.289Z,1.90
2023-12-09T23:58:41.020Z,1.90
